createdAt,value
2024-03-14T00:00:43.956Z,30.10
2024-03-14T00:02:48.752Z,31.25
2024-03-14T00:04:51.617Z,29.90
2024-03-14T00:06:54.348Z,30.55
2024-03-14T00:08:57.708Z,29.68
2024-03-14T00:11:00.492Z,29.47
2024-03-14T00:13:03.236Z,29.10
2024-03-14T00:15:07.271Z,29.38
2024-03-14T00:17:11.114Z,29.97
2024-03-14T00:19:13.847Z,29.63
2024-03-14T00:21:17.535Z,30.67
2024-03-14T00:23:22.923Z,30.66
2024-03-14T00:25:27.547Z,29.93
2024-03-14T00:27:30.461Z,30.45
2024-03-14T00:29:33.257Z,30.20
2024-03-14T00:31:42.656Z,30.55
2024-03-14T00:33:46.193Z,28.97
2024-03-14T00:35:49.111Z,29.99
2024-03-14T00:37:52.666Z,30.08
2024-03-14T00:39:55.509Z,31.27
2024-03-14T00:41:58.265Z,30.91
2024-03-14T00:44:02.485Z,30.00
2024-03-14T00:46:06.145Z,29.91
2024-03-14T00:48:08.974Z,29.56
2024-03-14T00:50:11.799Z,29.42
2024-03-14T00:52:14.579Z,31.45
2024-03-14T00:54:17.367Z,31.38
2024-03-14T00:56:20.169Z,31.08
2024-03-14T00:58:22.903Z,31.01
2024-03-14T01:00:25.740Z,30.96
2024-03-14T01:02:28.806Z,31.09
2024-03-14T01:04:31.564Z,30.75
2024-03-14T01:06:35.198Z,31.77
2024-03-14T01:08:42.134Z,30.94
2024-03-14T01:10:44.862Z,30.61
2024-03-14T01:12:47.656Z,30.67
2024-03-14T01:14:51.849Z,30.68
2024-03-14T01:16:54.725Z,31.32
2024-03-14T01:18:57.708Z,31.05
2024-03-14T01:21:01.283Z,31.53
2024-03-14T01:23:04.091Z,31.15
2024-03-14T01:25:07.299Z,31.81
2024-03-14T01:27:10.385Z,31.52
2024-03-14T01:29:13.168Z,31.45
2024-03-14T01:31:19.509Z,31.75
2024-03-14T01:33:22.667Z,31.39
2024-03-14T01:35:25.981Z,31.52
2024-03-14T01:37:28.730Z,30.74
2024-03-14T01:39:32.623Z,30.49
2024-03-14T01:41:35.491Z,31.17
2024-03-14T01:43:38.241Z,31.85
2024-03-14T01:45:43.659Z,31.07
2024-03-14T01:47:47.141Z,32.25
2024-03-14T01:49:52.208Z,32.63
2024-03-14T01:51:54.942Z,32.25
2024-03-14T01:53:57.853Z,33.35
2024-03-14T01:56:00.851Z,33.12
2024-03-14T01:58:05.737Z,32.69
2024-03-14T02:00:12.594Z,32.49
2024-03-14T02:02:15.810Z,32.61
2024-03-14T02:04:28.477Z,32.18
2024-03-14T02:06:41.450Z,31.79
2024-03-14T02:08:46.001Z,31.97
2024-03-14T02:10:48.775Z,32.02
2024-03-14T02:12:55.209Z,33.40
2024-03-14T02:14:58.065Z,32.40
2024-03-14T02:17:02.171Z,32.98
2024-03-14T02:19:04.913Z,32.39
2024-03-14T02:21:08.216Z,31.84
2024-03-14T02:23:11.386Z,32.11
2024-03-14T02:25:17.708Z,32.47
2024-03-14T02:27:21.367Z,32.31
2024-03-14T02:29:24.250Z,32.35
2024-03-14T02:31:26.985Z,32.40
2024-03-14T02:33:29.824Z,32.11
2024-03-14T02:35:33.661Z,32.16
2024-03-14T02:37:36.443Z,31.92
2024-03-14T02:39:40.096Z,32.45
2024-03-14T02:41:42.912Z,31.79
2024-03-14T02:43:47.470Z,32.54
2024-03-14T02:45:50.220Z,31.65
2024-03-14T02:47:53.027Z,32.18
2024-03-14T02:49:58.378Z,32.20
2024-03-14T02:52:01.373Z,31.45
2024-03-14T02:54:06.404Z,32.56
2024-03-14T02:56:12.106Z,32.35
2024-03-14T02:58:14.843Z,32.00
2024-03-14T03:00:19.708Z,32.28
2024-03-14T03:02:23.940Z,32.94
2024-03-14T03:04:31.554Z,31.60
2024-03-14T03:06:35.111Z,36.39
2024-03-14T03:08:38.410Z,32.99
2024-03-14T03:10:41.251Z,31.16
2024-03-14T03:12:44.162Z,31.38
2024-03-14T03:14:47.091Z,32.28
2024-03-14T03:16:50.572Z,30.93
2024-03-14T03:18:54.178Z,30.66
2024-03-14T03:20:57.044Z,31.69
2024-03-14T03:23:07.423Z,31.29
2024-03-14T03:25:10.319Z,31.68
2024-03-14T03:27:16.464Z,31.86
2024-03-14T03:29:19.225Z,34.25
2024-03-14T03:31:21.998Z,34.31
2024-03-14T03:33:25.354Z,34.25
2024-03-14T03:35:28.282Z,33.42
2024-03-14T03:37:31.049Z,31.37
2024-03-14T03:39:34.013Z,32.97
2024-03-14T03:41:38.583Z,32.93
2024-03-14T03:43:41.418Z,32.14
2024-03-14T03:45:44.340Z,32.18
2024-03-14T03:47:47.208Z,32.00
2024-03-14T03:49:50.102Z,31.72
2024-03-14T03:51:53.589Z,32.24
2024-03-14T03:53:56.415Z,31.52
2024-03-14T03:56:01.518Z,31.49
2024-03-14T03:58:04.303Z,31.53
2024-03-14T04:00:27.374Z,30.75
2024-03-14T04:02:30.297Z,30.91
2024-03-14T04:04:34.702Z,30.71
2024-03-14T04:06:37.486Z,31.04
2024-03-14T04:08:41.532Z,32.10
2024-03-14T04:10:44.544Z,32.44
2024-03-14T04:12:47.427Z,32.88
2024-03-14T04:14:50.333Z,33.05
2024-03-14T04:16:53.997Z,34.28
2024-03-14T04:18:57.097Z,34.49
2024-03-14T04:20:59.907Z,35.13
2024-03-14T04:23:02.691Z,40.11
2024-03-14T04:25:05.530Z,39.94
2024-03-14T04:27:08.296Z,36.25
2024-03-14T04:29:12.422Z,36.23
2024-03-14T04:31:15.165Z,37.69
2024-03-14T04:33:19.227Z,40.18
2024-03-14T04:35:23.167Z,39.18
2024-03-14T04:37:28.792Z,40.38
2024-03-14T04:39:31.572Z,42.75
2024-03-14T04:41:35.177Z,41.37
2024-03-14T04:43:37.924Z,42.02
2024-03-14T04:45:42.319Z,39.90
2024-03-14T04:47:48.256Z,40.25
2024-03-14T04:49:54.635Z,39.62
2024-03-14T04:51:57.556Z,39.61
2024-03-14T04:54:00.299Z,39.89
2024-03-14T04:56:04.369Z,40.10
2024-03-14T04:58:07.544Z,40.01
2024-03-14T05:00:29.007Z,40.68
2024-03-14T05:02:33.703Z,38.05
2024-03-14T05:04:36.492Z,37.93
2024-03-14T05:06:40.425Z,37.36
2024-03-14T05:08:43.738Z,38.21
2024-03-14T05:10:47.172Z,39.46
2024-03-14T05:12:50.382Z,40.38
2024-03-14T05:14:53.261Z,37.65
2024-03-14T05:16:56.043Z,36.73
2024-03-14T05:18:58.814Z,36.29
2024-03-14T05:21:01.661Z,37.84
2024-03-14T05:23:04.479Z,37.84
2024-03-14T05:25:08.615Z,37.14
2024-03-14T05:27:11.461Z,37.65
2024-03-14T05:29:14.209Z,37.37
2024-03-14T05:31:18.413Z,37.85
2024-03-14T05:33:21.679Z,37.94
2024-03-14T05:35:24.459Z,37.95
2024-03-14T05:37:27.231Z,39.17
2024-03-14T05:39:30.467Z,39.43
2024-03-14T05:41:33.587Z,41.02
2024-03-14T05:43:36.360Z,40.58
2024-03-14T05:45:39.176Z,39.35
2024-03-14T05:47:42.043Z,38.65
2024-03-14T05:49:45.032Z,36.95
2024-03-14T05:51:47.821Z,36.21
2024-03-14T05:53:50.574Z,34.70
2024-03-14T05:55:53.727Z,36.04
2024-03-14T05:57:56.837Z,35.01
2024-03-14T05:59:59.754Z,34.98
2024-03-14T06:02:02.607Z,34.73
2024-03-14T06:04:06.380Z,35.79
2024-03-14T06:06:09.440Z,34.40
2024-03-14T06:08:12.226Z,34.71
2024-03-14T06:10:16.198Z,35.41
2024-03-14T06:12:19.068Z,35.38
2024-03-14T06:14:26.781Z,34.92
2024-03-14T06:16:32.353Z,34.75
2024-03-14T06:18:36.785Z,36.17
2024-03-14T06:20:39.998Z,35.41
2024-03-14T06:22:45.822Z,36.44
2024-03-14T06:24:52.868Z,35.34
2024-03-14T06:26:55.954Z,36.82
2024-03-14T06:28:58.761Z,36.15
2024-03-14T06:31:04.321Z,35.54
2024-03-14T06:33:07.204Z,33.85
2024-03-14T06:35:11.285Z,34.24
2024-03-14T06:37:14.028Z,33.29
2024-03-14T06:39:18.803Z,32.69
2024-03-14T06:41:22.538Z,32.67
2024-03-14T06:43:25.726Z,31.88
2024-03-14T06:45:28.683Z,31.91
2024-03-14T06:47:31.505Z,32.09
2024-03-14T06:49:37.698Z,31.66
2024-03-14T06:51:44.048Z,31.68
2024-03-14T06:53:47.375Z,32.60
2024-03-14T06:55:52.470Z,33.21
2024-03-14T06:57:55.264Z,32.00
2024-03-14T06:59:58.151Z,31.05
2024-03-14T07:02:01.378Z,31.39
2024-03-14T07:04:05.546Z,31.54
2024-03-14T07:06:17.724Z,31.55
2024-03-14T07:08:22.216Z,32.32
2024-03-14T07:10:25.395Z,31.89
2024-03-14T07:12:28.299Z,32.43
2024-03-14T07:14:31.350Z,32.85
2024-03-14T07:16:34.203Z,31.95
2024-03-14T07:18:38.310Z,31.82
2024-03-14T07:20:44.714Z,32.04
2024-03-14T07:22:47.670Z,33.48
2024-03-14T07:24:50.479Z,32.40
2024-03-14T07:26:54.438Z,33.30
2024-03-14T07:28:58.526Z,34.37
2024-03-14T07:31:01.616Z,31.31
2024-03-14T07:33:04.644Z,29.74
2024-03-14T07:35:10.272Z,27.67
2024-03-14T07:37:17.120Z,28.18
2024-03-14T07:39:26.804Z,29.77
2024-03-14T07:41:31.301Z,28.37
2024-03-14T07:43:35.253Z,28.76
2024-03-14T07:45:38.117Z,27.70
2024-03-14T07:47:43.023Z,28.13
2024-03-14T07:49:46.621Z,27.60
2024-03-14T07:51:50.438Z,24.50
2024-03-14T07:53:53.443Z,26.38
2024-03-14T07:55:56.661Z,26.86
2024-03-14T07:57:59.428Z,26.05
2024-03-14T08:00:03.263Z,24.60
2024-03-14T08:02:13.618Z,25.84
2024-03-14T08:04:24.359Z,24.42
2024-03-14T08:06:28.960Z,23.63
2024-03-14T08:08:31.724Z,25.41
2024-03-14T08:10:34.767Z,24.31
2024-03-14T08:12:37.580Z,24.55
2024-03-14T08:14:45.360Z,25.25
2024-03-14T08:16:48.594Z,26.77
2024-03-14T08:18:52.822Z,25.05
2024-03-14T08:21:00.405Z,25.25
2024-03-14T08:23:05.818Z,25.46
2024-03-14T08:25:17.509Z,25.76
2024-03-14T08:27:26.148Z,24.79
2024-03-14T08:29:29.475Z,25.21
2024-03-14T08:31:32.272Z,26.79
2024-03-14T08:33:37.959Z,25.81
2024-03-14T08:35:44.075Z,25.38
2024-03-14T08:37:47.604Z,24.44
2024-03-14T08:39:50.872Z,25.37
2024-03-14T08:41:54.938Z,24.27
2024-03-14T08:43:58.237Z,23.83
2024-03-14T08:46:02.528Z,24.14
2024-03-14T08:48:09.071Z,22.97
2024-03-14T08:50:12.444Z,24.28
2024-03-14T08:52:15.389Z,22.70
2024-03-14T08:54:24.286Z,22.34
2024-03-14T08:56:27.073Z,39.50
2024-03-14T08:58:31.294Z,20.90
2024-03-14T09:00:34.628Z,22.44
2024-03-14T09:02:41.631Z,19.65
2024-03-14T09:04:48.462Z,20.55
2024-03-14T09:06:51.591Z,18.74
2024-03-14T09:08:54.356Z,19.68
2024-03-14T09:10:57.780Z,18.26
2024-03-14T09:13:01.338Z,17.96
2024-03-14T09:15:04.227Z,17.50
2024-03-14T09:17:07.367Z,17.52
2024-03-14T09:19:10.171Z,17.08
2024-03-14T09:21:13.216Z,17.79
2024-03-14T09:23:21.371Z,16.72
2024-03-14T09:25:27.651Z,16.77
2024-03-14T09:27:34.390Z,16.57
2024-03-14T09:29:37.422Z,19.25
2024-03-14T09:31:47.192Z,16.17
2024-03-14T09:33:50.947Z,16.89
2024-03-14T09:35:53.939Z,22.31
2024-03-14T09:37:57.172Z,25.74
2024-03-14T09:40:00.140Z,23.76
2024-03-14T09:42:02.968Z,23.31
2024-03-14T09:44:05.759Z,20.45
2024-03-14T09:46:10.987Z,20.18
2024-03-14T09:48:13.958Z,17.43
2024-03-14T09:50:21.640Z,18.79
2024-03-14T09:52:25.264Z,19.78
2024-03-14T09:54:28.419Z,17.30
2024-03-14T09:56:32.194Z,17.28
2024-03-14T09:58:34.948Z,16.84
2024-03-14T10:00:37.986Z,16.88
2024-03-14T10:02:42.831Z,17.62
2024-03-14T10:04:45.620Z,18.70
2024-03-14T10:06:49.385Z,16.52
2024-03-14T10:08:55.137Z,16.50
2024-03-14T10:10:57.889Z,15.23
2024-03-14T10:13:00.779Z,15.45
2024-03-14T10:15:07.542Z,15.53
2024-03-14T10:17:12.274Z,14.44
2024-03-14T10:19:16.924Z,15.19
2024-03-14T10:21:19.978Z,15.06
2024-03-14T10:23:22.825Z,14.42
2024-03-14T10:25:26.399Z,14.71
2024-03-14T10:27:30.959Z,14.21
2024-03-14T10:29:34.531Z,13.48
2024-03-14T10:31:38.436Z,14.34
2024-03-14T10:33:42.041Z,15.39
2024-03-14T10:35:46.737Z,14.48
2024-03-14T10:37:50.652Z,13.98
2024-03-14T10:39:56.294Z,13.50
2024-03-14T10:41:59.131Z,13.47
2024-03-14T10:44:05.086Z,14.02
2024-03-14T10:46:15.074Z,13.95
2024-03-14T10:48:19.770Z,13.69
2024-03-14T10:50:23.457Z,13.10
2024-03-14T10:52:27.425Z,13.12
2024-03-14T10:54:35.339Z,12.10
2024-03-14T10:56:41.702Z,11.86
2024-03-14T10:58:48.726Z,12.10
2024-03-14T11:00:53.215Z,12.18
2024-03-14T11:02:58.744Z,11.71
2024-03-14T11:05:01.954Z,11.71
2024-03-14T11:07:08.982Z,11.91
2024-03-14T11:09:15.973Z,12.58
2024-03-14T11:11:20.342Z,12.07
2024-03-14T11:13:31.962Z,12.94
2024-03-14T11:15:38.269Z,12.99
2024-03-14T11:17:44.294Z,13.95
2024-03-14T11:19:50.736Z,12.94
2024-03-14T11:21:54.995Z,13.35
2024-03-14T11:24:00.557Z,12.73
2024-03-14T11:26:09.121Z,12.39
2024-03-14T11:28:14.198Z,12.45
2024-03-14T11:30:20.512Z,12.30
2024-03-14T11:32:25.179Z,12.61
2024-03-14T11:34:27.942Z,13.33
2024-03-14T11:36:32.542Z,13.29
2024-03-14T11:38:35.434Z,13.71
2024-03-14T11:40:38.470Z,13.70
2024-03-14T11:42:50.664Z,13.78
2024-03-14T11:44:53.427Z,13.57
2024-03-14T11:46:58.831Z,13.05
2024-03-14T11:49:15.154Z,13.37
2024-03-14T11:51:20.342Z,13.97
2024-03-14T11:53:24.558Z,13.89
2024-03-14T11:55:30.577Z,14.05
2024-03-14T11:57:35.080Z,13.75
2024-03-14T11:59:40.873Z,14.14
2024-03-14T12:01:50.952Z,14.17
2024-03-14T12:03:54.678Z,13.09
2024-03-14T12:06:07.996Z,13.84
2024-03-14T12:08:16.978Z,13.55
2024-03-14T12:10:20.675Z,14.00
2024-03-14T12:12:24.621Z,14.27
2024-03-14T12:14:29.757Z,15.36
2024-03-14T12:16:33.731Z,15.71
2024-03-14T12:18:37.475Z,14.60
2024-03-14T12:20:48.243Z,13.96
2024-03-14T12:22:52.602Z,14.54
2024-03-14T12:24:56.825Z,14.29
2024-03-14T12:26:59.960Z,14.49
2024-03-14T12:29:03.326Z,13.48
2024-03-14T12:31:06.133Z,12.55
2024-03-14T12:33:13.288Z,12.47
2024-03-14T12:35:18.295Z,12.81
2024-03-14T12:37:24.004Z,13.74
2024-03-14T12:39:29.635Z,14.02
2024-03-14T12:41:34.914Z,14.46
2024-03-14T12:43:39.130Z,14.62
2024-03-14T12:45:42.554Z,14.70
2024-03-14T12:47:48.446Z,15.19
2024-03-14T12:49:51.304Z,13.66
2024-03-14T12:51:59.442Z,14.62
2024-03-14T12:54:03.319Z,14.91
2024-03-14T12:56:09.005Z,14.24
2024-03-14T12:58:23.341Z,13.80
2024-03-14T13:00:27.876Z,14.28
2024-03-14T13:02:31.095Z,13.35
2024-03-14T13:04:39.632Z,14.98
2024-03-14T13:06:42.552Z,14.18
2024-03-14T13:08:46.631Z,12.32
2024-03-14T13:10:49.712Z,12.43
2024-03-14T13:13:01.531Z,12.06
2024-03-14T13:15:16.304Z,11.75
2024-03-14T13:17:19.362Z,12.25
2024-03-14T13:19:23.416Z,13.25
2024-03-14T13:21:27.026Z,13.06
2024-03-14T13:23:30.784Z,11.84
2024-03-14T13:25:38.106Z,12.15
2024-03-14T13:27:41.845Z,11.68
2024-03-14T13:29:45.509Z,11.89
2024-03-14T13:31:48.248Z,11.89
2024-03-14T13:33:52.298Z,11.22
2024-03-14T13:35:55.241Z,12.01
2024-03-14T13:37:58.975Z,12.96
2024-03-14T13:40:01.869Z,13.33
2024-03-14T13:42:04.884Z,14.39
2024-03-14T13:44:08.017Z,14.54
2024-03-14T13:46:12.837Z,14.05
2024-03-14T13:48:18.967Z,13.48
2024-03-14T13:50:22.409Z,16.49
2024-03-14T13:52:25.467Z,17.76
2024-03-14T13:54:30.233Z,15.69
2024-03-14T13:56:33.100Z,14.35
2024-03-14T13:58:42.934Z,13.37
2024-03-14T14:00:51.594Z,14.25
2024-03-14T14:03:01.869Z,16.20
2024-03-14T14:05:05.861Z,21.34
2024-03-14T14:07:10.012Z,21.15
2024-03-14T14:09:12.976Z,21.88
2024-03-14T14:11:15.998Z,29.84
2024-03-14T14:13:22.048Z,28.37
2024-03-14T14:15:25.145Z,22.50
2024-03-14T14:17:28.037Z,24.41
2024-03-14T14:19:32.383Z,17.19
2024-03-14T14:21:38.849Z,17.86
2024-03-14T14:23:41.808Z,17.72
2024-03-14T14:25:46.107Z,16.88
2024-03-14T14:27:49.005Z,17.80
2024-03-14T14:29:54.115Z,17.08
2024-03-14T14:31:56.869Z,15.99
2024-03-14T14:33:59.773Z,16.50
2024-03-14T14:36:03.404Z,16.35
2024-03-14T14:38:06.834Z,16.17
2024-03-14T14:40:12.306Z,17.23
2024-03-14T14:42:16.991Z,16.28
2024-03-14T14:44:19.762Z,15.08
2024-03-14T14:46:22.529Z,16.90
2024-03-14T14:48:28.788Z,16.36
2024-03-14T14:50:31.614Z,15.85
2024-03-14T14:52:37.600Z,15.45
2024-03-14T14:54:40.399Z,13.74
2024-03-14T14:56:45.597Z,13.77
2024-03-14T14:58:49.533Z,14.74
2024-03-14T15:00:52.821Z,14.64
2024-03-14T15:02:55.722Z,13.58
2024-03-14T15:05:00.327Z,13.95
2024-03-14T15:07:03.262Z,13.86
2024-03-14T15:09:06.373Z,14.56
2024-03-14T15:11:10.482Z,15.74
2024-03-14T15:13:14.096Z,15.15
2024-03-14T15:15:23.961Z,15.91
2024-03-14T15:17:27.759Z,15.75
2024-03-14T15:19:38.785Z,15.46
2024-03-14T15:21:41.768Z,15.25
2024-03-14T15:23:46.941Z,16.12
2024-03-14T15:25:51.320Z,16.56
2024-03-14T15:27:54.711Z,14.45
2024-03-14T15:29:58.538Z,12.59
2024-03-14T15:32:02.633Z,11.50
2024-03-14T15:34:05.490Z,11.84
2024-03-14T15:36:13.909Z,16.37
2024-03-14T15:38:17.515Z,16.26
2024-03-14T15:40:23.424Z,15.23
2024-03-14T15:42:26.242Z,16.90
2024-03-14T15:44:29.047Z,16.16
2024-03-14T15:46:32.261Z,14.85
2024-03-14T15:48:35.120Z,15.41
2024-03-14T15:50:39.107Z,15.59
2024-03-14T15:52:41.868Z,17.39
2024-03-14T15:54:44.685Z,19.34
2024-03-14T15:56:47.440Z,23.17
2024-03-14T15:58:50.404Z,22.07
2024-03-14T16:00:53.707Z,17.35
2024-03-14T16:02:56.690Z,16.55
2024-03-14T16:04:59.484Z,17.01
2024-03-14T16:07:02.325Z,16.12
2024-03-14T16:09:11.051Z,16.70
2024-03-14T16:11:13.893Z,15.95
2024-03-14T16:13:17.269Z,16.90
2024-03-14T16:15:23.055Z,16.83
2024-03-14T16:17:28.263Z,19.41
2024-03-14T16:19:31.249Z,20.75
2024-03-14T16:21:34.354Z,19.27
2024-03-14T16:23:37.181Z,19.05
2024-03-14T16:25:39.930Z,20.38
2024-03-14T16:27:42.774Z,20.53
2024-03-14T16:29:45.541Z,20.36
2024-03-14T16:31:48.348Z,16.91
2024-03-14T16:33:51.245Z,15.80
2024-03-14T16:35:54.080Z,17.70
2024-03-14T16:38:00.205Z,17.23
2024-03-14T16:40:04.284Z,16.19
2024-03-14T16:42:08.395Z,15.73
2024-03-14T16:44:11.171Z,16.30
2024-03-14T16:46:17.724Z,16.62
2024-03-14T16:48:20.917Z,18.34
2024-03-14T16:50:25.497Z,22.94
2024-03-14T16:52:28.407Z,25.38
2024-03-14T16:54:32.907Z,27.21
2024-03-14T16:56:35.793Z,30.81
2024-03-14T16:58:38.587Z,30.65
2024-03-14T17:00:42.912Z,26.58
2024-03-14T17:02:49.012Z,28.32
2024-03-14T17:04:55.752Z,29.51
2024-03-14T17:06:58.499Z,29.21
2024-03-14T17:09:05.485Z,30.20
2024-03-14T17:11:09.673Z,31.73
2024-03-14T17:13:15.194Z,30.45
2024-03-14T17:15:19.630Z,25.10
2024-03-14T17:17:22.579Z,21.42
2024-03-14T17:19:25.818Z,21.72
2024-03-14T17:21:28.637Z,20.41
2024-03-14T17:23:32.484Z,18.82
2024-03-14T17:25:35.257Z,18.61
2024-03-14T17:27:42.032Z,18.00
2024-03-14T17:29:44.862Z,18.15
2024-03-14T17:31:49.937Z,18.26
2024-03-14T17:33:56.570Z,17.79
2024-03-14T17:35:59.457Z,17.75
2024-03-14T17:38:02.874Z,18.15
2024-03-14T17:40:12.795Z,18.73
2024-03-14T17:42:19.679Z,20.08
2024-03-14T17:44:28.037Z,31.52
2024-03-14T17:46:34.002Z,47.34
2024-03-14T17:48:39.822Z,46.43
2024-03-14T17:50:43.391Z,42.09
2024-03-14T17:52:47.323Z,37.84
2024-03-14T17:54:50.278Z,37.05
2024-03-14T17:56:57.917Z,37.05
2024-03-14T17:59:03.684Z,37.82
2024-03-14T18:01:09.823Z,37.55
2024-03-14T18:03:12.971Z,37.18
2024-03-14T18:05:15.859Z,38.09
2024-03-14T18:07:18.804Z,39.85
2024-03-14T18:09:21.602Z,36.94
2024-03-14T18:11:24.381Z,42.05
2024-03-14T18:13:27.407Z,47.80
2024-03-14T18:15:30.399Z,47.57
2024-03-14T18:17:34.654Z,45.92
2024-03-14T18:19:37.619Z,43.93
2024-03-14T18:21:43.289Z,41.48
2024-03-14T18:23:46.515Z,38.55
2024-03-14T18:25:49.536Z,37.87
2024-03-14T18:27:53.350Z,38.24
2024-03-14T18:29:56.196Z,39.35
2024-03-14T18:31:59.207Z,40.74
2024-03-14T18:34:02.653Z,43.55
2024-03-14T18:36:05.629Z,44.25
2024-03-14T18:38:08.833Z,43.40
2024-03-14T18:40:13.204Z,44.93
2024-03-14T18:42:19.142Z,46.03
2024-03-14T18:44:26.010Z,44.84
2024-03-14T18:46:30.317Z,42.56
2024-03-14T18:48:36.533Z,46.00
2024-03-14T18:50:40.098Z,47.43
2024-03-14T18:52:43.440Z,48.93
2024-03-14T18:54:49.619Z,48.02
2024-03-14T18:56:53.768Z,45.32
2024-03-14T18:58:58.420Z,45.65
2024-03-14T19:01:08.005Z,45.82
2024-03-14T19:03:14.443Z,45.27
2024-03-14T19:05:18.329Z,47.75
2024-03-14T19:07:21.958Z,49.72
2024-03-14T19:09:25.434Z,52.24
2024-03-14T19:11:28.469Z,59.78
2024-03-14T19:13:31.260Z,58.14
2024-03-14T19:15:34.155Z,55.15
2024-03-14T19:17:38.407Z,60.26
2024-03-14T19:19:41.621Z,66.20
2024-03-14T19:21:46.801Z,70.91
2024-03-14T19:23:49.836Z,71.61
2024-03-14T19:25:52.895Z,69.88
2024-03-14T19:27:57.477Z,70.46
2024-03-14T19:30:00.899Z,68.15
2024-03-14T19:32:05.193Z,68.12
2024-03-14T19:34:13.210Z,70.87
2024-03-14T19:36:18.620Z,71.43
2024-03-14T19:38:22.997Z,67.37
2024-03-14T19:40:26.978Z,61.45
2024-03-14T19:42:30.220Z,48.40
2024-03-14T19:44:32.976Z,41.85
2024-03-14T19:46:38.693Z,53.78
2024-03-14T19:48:47.439Z,58.78
2024-03-14T19:50:50.739Z,60.71
2024-03-14T19:52:54.137Z,61.69
2024-03-14T19:54:58.001Z,60.66
2024-03-14T19:57:01.663Z,62.71
2024-03-14T19:59:04.860Z,62.82
2024-03-14T20:01:09.291Z,64.26
2024-03-14T20:03:13.287Z,65.24
2024-03-14T20:05:17.616Z,68.01
2024-03-14T20:07:22.679Z,68.99
2024-03-14T20:09:26.170Z,70.25
2024-03-14T20:11:29.898Z,67.58
2024-03-14T20:13:32.770Z,66.54
2024-03-14T20:15:35.564Z,66.90
2024-03-14T20:17:38.441Z,67.42
2024-03-14T20:19:42.093Z,68.84
2024-03-14T20:21:46.480Z,67.07
2024-03-14T20:23:50.655Z,68.90
2024-03-14T20:25:53.489Z,70.94
2024-03-14T20:27:56.589Z,69.63
2024-03-14T20:30:00.305Z,67.74
2024-03-14T20:32:06.033Z,69.40
2024-03-14T20:34:09.012Z,66.93
2024-03-14T20:36:12.324Z,65.43
2024-03-14T20:38:15.292Z,68.06
2024-03-14T20:40:18.502Z,69.53
2024-03-14T20:42:22.229Z,69.94
2024-03-14T20:44:27.256Z,72.15
2024-03-14T20:46:30.498Z,72.16
2024-03-14T20:48:34.461Z,72.75
2024-03-14T20:50:37.558Z,73.34
2024-03-14T20:52:40.934Z,70.22
2024-03-14T20:54:55.135Z,70.99
2024-03-14T20:56:58.280Z,72.60
2024-03-14T20:59:01.130Z,70.45
2024-03-14T21:01:04.279Z,65.89
2024-03-14T21:03:26.158Z,71.99
2024-03-14T21:05:28.926Z,72.14
2024-03-14T21:07:31.669Z,73.03
2024-03-14T21:09:34.709Z,72.22
2024-03-14T21:11:40.842Z,67.45
2024-03-14T21:13:43.828Z,70.73
2024-03-14T21:15:47.550Z,69.76
2024-03-14T21:17:50.689Z,68.43
2024-03-14T21:19:54.977Z,68.59
2024-03-14T21:21:58.496Z,63.69
2024-03-14T21:24:03.454Z,55.90
2024-03-14T21:26:06.307Z,63.19
2024-03-14T21:28:09.047Z,64.48
2024-03-14T21:30:12.275Z,57.97
2024-03-14T21:32:15.218Z,58.07
2024-03-14T21:34:18.496Z,60.72
2024-03-14T21:36:21.249Z,60.33
2024-03-14T21:38:25.322Z,59.08
2024-03-14T21:40:28.446Z,59.91
2024-03-14T21:42:31.214Z,57.73
2024-03-14T21:44:40.663Z,54.62
2024-03-14T21:46:43.416Z,51.50
2024-03-14T21:48:46.790Z,48.56
2024-03-14T21:50:49.640Z,48.35
2024-03-14T21:52:52.531Z,47.46
2024-03-14T21:54:55.693Z,46.23
2024-03-14T21:56:59.146Z,44.52
2024-03-14T21:59:01.988Z,43.61
2024-03-14T22:01:07.122Z,43.09
2024-03-14T22:03:10.097Z,43.78
2024-03-14T22:05:14.038Z,44.45
2024-03-14T22:07:19.086Z,46.93
2024-03-14T22:09:23.761Z,45.59
2024-03-14T22:11:27.136Z,44.81
2024-03-14T22:13:30.295Z,45.76
2024-03-14T22:15:33.327Z,45.08
2024-03-14T22:17:37.938Z,45.79
2024-03-14T22:19:40.877Z,45.69
2024-03-14T22:21:44.667Z,47.66
2024-03-14T22:23:48.497Z,45.16
2024-03-14T22:25:51.241Z,45.21
2024-03-14T22:27:56.404Z,46.42
2024-03-14T22:30:00.230Z,50.55
2024-03-14T22:32:06.022Z,53.19
2024-03-14T22:34:08.785Z,54.89
2024-03-14T22:36:12.172Z,53.72
2024-03-14T22:38:14.959Z,53.99
2024-03-14T22:40:17.880Z,56.45
2024-03-14T22:42:20.882Z,54.94
2024-03-14T22:44:24.109Z,55.52
2024-03-14T22:46:27.405Z,55.62
2024-03-14T22:48:30.193Z,56.45
2024-03-14T22:50:34.922Z,55.89
2024-03-14T22:52:37.778Z,56.41
2024-03-14T22:54:41.754Z,53.51
2024-03-14T22:56:44.538Z,54.83
2024-03-14T22:58:47.364Z,54.83
2024-03-14T23:00:50.578Z,55.69
2024-03-14T23:02:53.988Z,55.77
2024-03-14T23:04:56.742Z,56.60
2024-03-14T23:06:59.796Z,64.29
2024-03-14T23:09:02.607Z,61.31
2024-03-14T23:11:05.392Z,58.54
2024-03-14T23:13:08.604Z,56.67
2024-03-14T23:15:12.655Z,55.17
2024-03-14T23:17:16.236Z,55.29
2024-03-14T23:19:19.136Z,55.22
2024-03-14T23:21:21.894Z,55.21
2024-03-14T23:23:27.146Z,55.08
2024-03-14T23:25:31.385Z,53.24
2024-03-14T23:27:34.139Z,51.93
2024-03-14T23:29:36.883Z,53.10
2024-03-14T23:31:40.055Z,52.59
2024-03-14T23:33:42.907Z,50.73
2024-03-14T23:35:46.215Z,49.80
2024-03-14T23:37:49.376Z,49.53
2024-03-14T23:39:52.220Z,49.15
2024-03-14T23:41:57.718Z,47.56
2024-03-14T23:44:00.471Z,45.09
2024-03-14T23:46:03.534Z,45.45
2024-03-14T23:48:07.172Z,49.60
2024-03-14T23:50:10.176Z,44.07
2024-03-14T23:52:12.922Z,44.34
2024-03-14T23:54:15.942Z,44.46
2024-03-14T23:56:19.504Z,43.77
2024-03-14T23:58:22.415Z,44.68
